Time;durP1;ratioP1;P1;durP2;ratioP2;P2;SDS_P1;SDS_P2;PMS_P1;PMS_P2;Temp;Humidity;BMP_temperature;BMP_pressure;BME280_temperature;BME280_humidity;BME280_pressure;Samples;Min_cycle;Max_cycle;Signal;HPM_P1;HPM_P2
2022/02/02 00:04:31;;;;;;;;;;;15.80;99.90;;;;;;5061289;28;1963;-46
2022/02/02 00:09:50;;;;;;;;;;;15.80;99.90;;;;;;5062021;28;782;-47
2022/02/02 00:12:25;;;;;;;;;;;15.80;99.90;;;;;;5061591;28;815;-47
2022/02/02 00:15:06;;;;;;;;;;;15.70;99.90;;;;;;5060723;28;1346;-47
2022/02/02 00:20:12;;;;;;;;;;;15.70;99.90;;;;;;5061599;28;726;-54
2022/02/02 00:22:42;;;;;;;;;;;15.70;99.90;;;;;;5061430;28;1975;-47
2022/02/02 00:27:38;;;;;;;;;;;15.60;99.90;;;;;;5058214;28;784;-47
2022/02/02 00:30:05;;;;;;;;;;;15.60;99.90;;;;;;5057825;28;855;-47
2022/02/02 00:34:58;;;;;;;;;;;15.50;99.90;;;;;;5058176;28;1029;-54
2022/02/02 00:37:24;;;;;;;;;;;15.50;99.90;;;;;;5057763;28;914;-54
2022/02/02 00:39:50;;;;;;;;;;;15.50;99.90;;;;;;5055028;28;1394;-54
2022/02/02 00:42:16;;;;;;;;;;;15.50;99.90;;;;;;5052666;28;1919;-55
2022/02/02 00:44:47;;;;;;;;;;;15.50;99.90;;;;;;5057894;28;1006;-54
2022/02/02 00:47:19;;;;;;;;;;;15.40;99.90;;;;;;5056986;28;880;-55
2022/02/02 00:49:48;;;;;;;;;;;15.40;99.90;;;;;;5016544;28;1043;-54
2022/02/02 00:52:14;;;;;;;;;;;15.40;99.90;;;;;;5016679;28;1069;-55
2022/02/02 00:54:40;;;;;;;;;;;15.40;99.90;;;;;;5016134;28;1439;-54
2022/02/02 00:57:05;;;;;;;;;;;15.40;99.90;;;;;;5011402;28;802;-54
2022/02/02 00:59:31;;;;;;;;;;;15.30;99.90;;;;;;5017988;28;1227;-54
2022/02/02 01:01:57;;;;;;;;;;;15.30;99.90;;;;;;5035002;28;1270;-54
2022/02/02 01:04:26;;;;;;;;;;;15.30;99.90;;;;;;5037569;28;1914;-54
2022/02/02 01:09:47;;;;;;;;;;;15.30;99.90;;;;;;5021544;28;995;-54
2022/02/02 01:12:39;;;;;;;;;;;15.30;99.90;;;;;;5035519;28;1037;-54
2022/02/02 01:28:31;;;;;;;;;;;15.10;99.90;;;;;;5057390;28;801;-56
2022/02/02 01:31:01;;;;;;;;;;;15.10;99.90;;;;;;5057200;28;892;-56
2022/02/02 01:33:29;;;;;;;;;;;15.00;99.90;;;;;;5055337;28;1029;-54
2022/02/02 01:35:56;;;;;;;;;;;15.00;99.90;;;;;;5057536;28;863;-55
2022/02/02 01:38:24;;;;;;;;;;;15.00;99.90;;;;;;5053609;28;1326;-47
2022/02/02 01:40:56;;;;;;;;;;;15.00;99.90;;;;;;5057415;28;870;-47
2022/02/02 01:43:30;;;;;;;;;;;15.00;99.90;;;;;;5054159;28;1910;-47
2022/02/02 01:46:04;;;;;;;;;;;15.00;99.90;;;;;;5055496;28;1315;-47
2022/02/02 01:56:20;;;;;;;;;;;14.90;99.90;;;;;;5056681;28;811;-54
2022/02/02 02:01:31;;;;;;;;;;;14.90;99.90;;;;;;5056710;28;1250;-47
2022/02/02 02:03:58;;;;;;;;;;;14.80;99.90;;;;;;5056544;28;1906;-47
2022/02/02 02:06:25;;;;;;;;;;;14.80;99.90;;;;;;5056486;28;762;-47
2022/02/02 02:08:51;;;;;;;;;;;14.80;99.90;;;;;;5056030;28;877;-47
2022/02/02 02:11:20;;;;;;;;;;;14.80;99.90;;;;;;5056320;28;966;-47
2022/02/02 02:16:31;;;;;;;;;;;14.80;99.90;;;;;;5055053;28;809;-47
2022/02/02 02:18:58;;;;;;;;;;;14.70;99.90;;;;;;5021806;28;1066;-47
2022/02/02 02:21:25;;;;;;;;;;;14.70;99.90;;;;;;5056382;28;839;-47
2022/02/02 02:23:53;;;;;;;;;;;14.70;99.90;;;;;;5056390;28;1906;-47
2022/02/02 02:26:25;;;;;;;;;;;14.70;99.90;;;;;;5038258;28;1804;-52
2022/02/02 02:34:25;;;;;;;;;;;14.60;99.90;;;;;;5049259;28;1264;-47
2022/02/02 02:56:07;;;;;;;;;;;14.50;99.90;;;;;;5054352;28;1228;-54
2022/02/02 02:58:49;;;;;;;;;;;14.50;99.90;;;;;;5041260;28;1551;-48
2022/02/02 03:01:33;;;;;;;;;;;14.40;99.90;;;;;;5050053;28;1149;-47
2022/02/02 03:58:29;;;;;;;;;;;14.10;99.90;;;;;;5055088;28;1058;-47
2022/02/02 04:03:53;;;;;;;;;;;14.10;99.90;;;;;;5041487;28;1902;-48
2022/02/02 04:06:22;;;;;;;;;;;14.10;99.90;;;;;;5058203;28;818;-47
2022/02/02 04:08:49;;;;;;;;;;;14.10;99.90;;;;;;5058984;28;853;-47
2022/02/02 04:11:26;;;;;;;;;;;14.00;99.90;;;;;;5058460;28;873;-47
2022/02/02 04:38:59;;;;;;;;;;;13.90;99.90;;;;;;5058075;28;813;-47
2022/02/02 04:58:01;;;;;;;;;;;13.80;99.90;;;;;;5057928;28;765;-47
2022/02/02 05:08:33;;;;;;;;;;;13.80;99.90;;;;;;5058192;28;755;-47
2022/02/02 05:53:46;;;;;;;;;;;13.60;99.90;;;;;;5057250;28;825;-54
2022/02/02 05:56:14;;;;;;;;;;;13.50;99.90;;;;;;5056951;28;892;-54
2022/02/02 05:58:43;;;;;;;;;;;13.60;99.90;;;;;;5055356;28;990;-54
2022/02/02 06:01:10;;;;;;;;;;;13.60;99.90;;;;;;5054191;28;1295;-47
2022/02/02 06:03:55;;;;;;;;;;;13.60;99.90;;;;;;5038923;28;1960;-47
2022/02/02 06:06:23;;;;;;;;;;;13.60;99.90;;;;;;5055999;28;952;-47
2022/02/02 06:08:50;;;;;;;;;;;13.60;99.90;;;;;;5056168;28;858;-54
2022/02/02 06:11:20;;;;;;;;;;;13.50;99.90;;;;;;5042891;28;1594;-54
2022/02/02 06:13:50;;;;;;;;;;;13.60;99.90;;;;;;5055981;28;863;-54
2022/02/02 06:16:18;;;;;;;;;;;13.60;99.90;;;;;;5056214;28;925;-54
2022/02/02 06:18:53;;;;;;;;;;;13.60;99.90;;;;;;5056483;28;964;-54
2022/02/02 06:21:21;;;;;;;;;;;13.60;99.90;;;;;;5056618;28;787;-54
2022/02/02 06:23:52;;;;;;;;;;;13.70;99.90;;;;;;5055666;28;1902;-54
2022/02/02 06:26:20;;;;;;;;;;;13.70;99.90;;;;;;5056503;28;878;-54
2022/02/02 06:28:50;;;;;;;;;;;13.70;99.90;;;;;;5039395;28;1567;-54
2022/02/02 06:31:16;;;;;;;;;;;13.70;99.90;;;;;;5056572;28;766;-54
2022/02/02 06:33:43;;;;;;;;;;;13.80;99.90;;;;;;5056216;28;922;-54
2022/02/02 06:36:11;;;;;;;;;;;13.80;99.90;;;;;;5038768;28;1087;-54
2022/02/02 06:38:38;;;;;;;;;;;13.80;99.90;;;;;;5055795;28;813;-54
2022/02/02 06:41:05;;;;;;;;;;;13.90;99.90;;;;;;5055800;28;788;-54
2022/02/02 06:43:31;;;;;;;;;;;13.90;99.90;;;;;;5055572;28;1910;-54
2022/02/02 06:46:01;;;;;;;;;;;14.00;99.90;;;;;;5053344;28;758;-54
2022/02/02 06:48:30;;;;;;;;;;;14.00;99.90;;;;;;5056000;28;801;-54
2022/02/02 06:51:04;;;;;;;;;;;14.10;99.90;;;;;;5055508;28;938;-54
2022/02/02 06:53:40;;;;;;;;;;;14.10;99.90;;;;;;5056055;28;814;-54
2022/02/02 06:56:43;;;;;;;;;;;14.20;99.90;;;;;;5055910;28;885;-54
2022/02/02 07:06:57;;;;;;;;;;;14.30;99.90;;;;;;5053963;28;1324;-54
2022/02/02 07:12:19;;;;;;;;;;;14.40;99.90;;;;;;5055706;28;759;-54
2022/02/02 07:18:15;;;;;;;;;;;14.40;99.90;;;;;;5022964;28;1068;-54
2022/02/02 07:20:45;;;;;;;;;;;14.50;99.90;;;;;;5054259;28;1298;-54
2022/02/02 07:23:29;;;;;;;;;;;14.60;99.90;;;;;;5055811;28;783;-54
2022/02/02 07:26:52;;;;;;;;;;;14.60;99.90;;;;;;5021210;28;930;-47
2022/02/02 07:28:56;;;;;;;;;;;14.60;99.90;;;;;;5047114;28;1168;-47
2022/02/02 07:32:17;;;;;;;;;;;14.70;99.90;;;;;;5054563;28;973;-54
2022/02/02 07:34:50;;;;;;;;;;;14.70;99.90;;;;;;5051155;28;1420;-54
2022/02/02 07:37:26;;;;;;;;;;;14.80;99.90;;;;;;5018112;28;1267;-54
2022/02/02 07:39:55;;;;;;;;;;;14.80;99.90;;;;;;5015777;28;1454;-54
2022/02/02 07:42:24;;;;;;;;;;;14.90;99.90;;;;;;5017025;28;1148;-54
2022/02/02 07:44:53;;;;;;;;;;;14.90;99.90;;;;;;5001255;28;1903;-54
2022/02/02 07:47:20;;;;;;;;;;;14.90;99.90;;;;;;5017318;28;1158;-54
2022/02/02 07:49:52;;;;;;;;;;;15.00;99.90;;;;;;5016960;28;1258;-54
2022/02/02 07:52:19;;;;;;;;;;;15.00;99.90;;;;;;5016076;28;1259;-54
2022/02/02 07:54:48;;;;;;;;;;;15.10;99.90;;;;;;5015118;28;1247;-54
2022/02/02 07:57:16;;;;;;;;;;;15.10;99.90;;;;;;5013457;28;1227;-54
2022/02/02 07:59:55;;;;;;;;;;;15.10;99.90;;;;;;5020467;28;1235;-54
2022/02/02 08:02:31;;;;;;;;;;;15.20;99.90;;;;;;5035666;28;1073;-54
2022/02/02 08:04:59;;;;;;;;;;;15.20;99.90;;;;;;5017872;28;1910;-54
2022/02/02 08:07:33;;;;;;;;;;;15.30;99.90;;;;;;5035336;28;1215;-47
2022/02/02 08:10:14;;;;;;;;;;;15.30;99.90;;;;;;5030300;28;1634;-47
2022/02/02 08:12:50;;;;;;;;;;;15.30;99.90;;;;;;5036850;28;1156;-47
2022/02/02 08:15:18;;;;;;;;;;;15.40;99.90;;;;;;5055525;28;1378;-54
2022/02/02 08:17:45;;;;;;;;;;;15.40;99.90;;;;;;5058256;28;1845;-54
2022/02/02 08:20:11;;;;;;;;;;;15.50;99.90;;;;;;5058605;28;1546;-54
2022/02/02 08:22:41;;;;;;;;;;;15.50;99.90;;;;;;5058449;28;1578;-54
2022/02/02 08:25:08;;;;;;;;;;;15.60;99.90;;;;;;5058366;28;1967;-54
2022/02/02 08:27:40;;;;;;;;;;;15.60;99.90;;;;;;5057919;28;1754;-54
2022/02/02 08:30:10;;;;;;;;;;;15.60;99.90;;;;;;5055656;28;1183;-47
2022/02/02 08:32:47;;;;;;;;;;;15.60;99.90;;;;;;5056896;28;1128;-47
2022/02/02 08:35:14;;;;;;;;;;;15.60;99.90;;;;;;5058298;28;1646;-47
2022/02/02 08:37:45;;;;;;;;;;;15.60;99.90;;;;;;5058105;28;954;-47
2022/02/02 08:43:21;;;;;;;;;;;15.70;99.90;;;;;;5016237;28;943;-47
2022/02/02 08:45:49;;;;;;;;;;;15.70;99.90;;;;;;5018945;28;1975;-47
2022/02/02 08:48:23;;;;;;;;;;;15.70;99.90;;;;;;5015476;28;1450;-47
2022/02/02 08:50:54;;;;;;;;;;;15.80;99.90;;;;;;5016070;28;1443;-47
2022/02/02 08:55:58;;;;;;;;;;;15.80;99.90;;;;;;5016312;28;1264;-47
2022/02/02 09:01:25;;;;;;;;;;;15.90;99.90;;;;;;5015381;28;1302;-54
2022/02/02 09:06:36;;;;;;;;;;;16.00;99.90;;;;;;5016337;28;975;-54
2022/02/02 09:25:28;;;;;;;;;;;16.30;99.90;;;;;;5054661;28;2036;-47
2022/02/02 09:36:14;;;;;;;;;;;16.50;99.90;;;;;;5056213;28;1519;-55
2022/02/02 09:38:40;;;;;;;;;;;16.60;99.90;;;;;;5055399;28;1448;-54
2022/02/02 09:41:52;;;;;;;;;;;16.60;99.90;;;;;;5056115;28;922;-55
2022/02/02 09:44:00;;;;;;;;;;;16.60;99.90;;;;;;5048209;28;1910;-55
2022/02/02 09:46:35;;;;;;;;;;;16.70;99.90;;;;;;5054168;28;1422;-47
2022/02/02 09:49:04;;;;;;;;;;;16.70;99.90;;;;;;5056111;28;1552;-48
2022/02/02 09:51:36;;;;;;;;;;;16.80;99.90;;;;;;5057135;28;859;-47
2022/02/02 09:57:01;;;;;;;;;;;16.80;99.90;;;;;;5055871;28;1503;-47
2022/02/02 10:02:59;;;;;;;;;;;16.90;99.90;;;;;;5055985;28;1073;-48
2022/02/02 10:10:34;;;;;;;;;;;17.00;99.90;;;;;;5053894;28;1429;-47
2022/02/02 10:13:23;;;;;;;;;;;16.90;99.90;;;;;;5050311;28;1299;-47
2022/02/02 10:15:50;;;;;;;;;;;16.90;99.90;;;;;;5052180;28;1048;-47
2022/02/02 10:18:19;;;;;;;;;;;16.90;99.90;;;;;;5050618;28;1040;-48
2022/02/02 10:20:49;;;;;;;;;;;16.90;99.90;;;;;;5051202;28;1061;-55
2022/02/02 10:23:21;;;;;;;;;;;16.90;99.90;;;;;;5051809;28;1583;-47
2022/02/02 10:25:48;;;;;;;;;;;16.90;99.90;;;;;;5050100;28;1961;-47
2022/02/02 10:28:15;;;;;;;;;;;16.90;99.90;;;;;;5053964;28;1120;-48
2022/02/02 10:30:52;;;;;;;;;;;16.90;99.90;;;;;;5051545;28;1116;-47
2022/02/02 10:33:20;;;;;;;;;;;16.90;99.90;;;;;;5047711;28;1215;-54
2022/02/02 10:35:47;;;;;;;;;;;16.90;99.90;;;;;;5049652;28;1219;-54
2022/02/02 10:38:17;;;;;;;;;;;16.90;99.90;;;;;;5049713;28;1389;-54
2022/02/02 10:46:27;;;;;;;;;;;17.00;99.90;;;;;;5054943;28;784;-54
2022/02/02 10:49:03;;;;;;;;;;;17.00;99.90;;;;;;5055950;28;746;-54
2022/02/02 10:51:42;;;;;;;;;;;17.00;99.90;;;;;;5052228;28;914;-55
2022/02/02 10:54:32;;;;;;;;;;;17.00;99.90;;;;;;5050121;28;1219;-54
2022/02/02 10:57:09;;;;;;;;;;;17.10;99.90;;;;;;5055739;28;798;-54
2022/02/02 11:07:59;;;;;;;;;;;17.20;99.90;;;;;;5055607;28;868;-54
2022/02/02 11:10:27;;;;;;;;;;;17.30;99.90;;;;;;5054885;28;842;-54
2022/02/02 11:12:53;;;;;;;;;;;17.30;99.90;;;;;;5055535;28;872;-54
2022/02/02 11:15:19;;;;;;;;;;;17.40;99.90;;;;;;5055627;28;757;-54
2022/02/02 11:17:57;;;;;;;;;;;17.40;99.90;;;;;;5055169;28;1087;-54
2022/02/02 11:20:24;;;;;;;;;;;17.50;99.90;;;;;;5055734;28;852;-54
2022/02/02 11:22:51;;;;;;;;;;;17.50;99.90;;;;;;5054986;28;1699;-54
2022/02/02 11:25:23;;;;;;;;;;;17.60;99.90;;;;;;5052670;28;1902;-47
2022/02/02 11:27:53;;;;;;;;;;;17.60;99.90;;;;;;5055422;28;857;-47
2022/02/02 11:30:25;;;;;;;;;;;17.60;99.90;;;;;;5055519;28;758;-54
2022/02/02 11:32:53;;;;;;;;;;;17.60;99.90;;;;;;5051805;28;876;-55
2022/02/02 11:35:37;;;;;;;;;;;17.60;99.90;;;;;;5005460;28;1727;-54
2022/02/02 11:38:08;;;;;;;;;;;17.60;99.90;;;;;;5053348;28;1372;-55
2022/02/02 11:40:42;;;;;;;;;;;17.50;99.90;;;;;;5037839;28;844;-54
2022/02/02 11:43:15;;;;;;;;;;;17.50;99.90;;;;;;5054856;28;958;-54
2022/02/02 11:45:45;;;;;;;;;;;17.50;99.90;;;;;;5049896;28;1909;-54
2022/02/02 11:48:19;;;;;;;;;;;17.50;99.90;;;;;;5051091;28;1318;-54
2022/02/02 11:50:52;;;;;;;;;;;17.50;99.90;;;;;;5037601;28;964;-54
2022/02/02 11:53:36;;;;;;;;;;;17.60;99.90;;;;;;5054389;28;1072;-54
2022/02/02 11:56:04;;;;;;;;;;;17.70;99.90;;;;;;5055294;28;758;-54
2022/02/02 11:58:33;;;;;;;;;;;17.70;99.90;;;;;;5054554;28;1019;-54
2022/02/02 12:01:24;;;;;;;;;;;17.70;99.90;;;;;;5054581;28;1288;-54
2022/02/02 12:09:52;;;;;;;;;;;17.70;99.90;;;;;;5053283;28;1370;-54
2022/02/02 12:36:01;;;;;;;;;;;18.00;99.90;;;;;;5058701;28;738;-54
2022/02/02 12:57:22;;;;;;;;;;;18.30;99.90;;;;;;5058297;28;756;-54
2022/02/02 13:02:21;;;;;;;;;;;18.40;99.90;;;;;;5058187;28;770;-54
2022/02/02 13:04:53;;;;;;;;;;;18.50;99.90;;;;;;5022726;28;1910;-54
2022/02/02 13:07:20;;;;;;;;;;;18.50;99.90;;;;;;5056930;28;1116;-54
2022/02/02 13:09:48;;;;;;;;;;;18.50;99.90;;;;;;5054524;28;1209;-54
2022/02/02 13:12:40;;;;;;;;;;;18.60;99.90;;;;;;5056974;28;1144;-54
2022/02/02 13:17:51;;;;;;;;;;;18.70;99.90;;;;;;5057804;28;899;-54
2022/02/02 13:20:25;;;;;;;;;;;18.70;99.90;;;;;;5035259;28;921;-54
2022/02/02 13:23:00;;;;;;;;;;;18.70;99.90;;;;;;5034570;28;1061;-54
2022/02/02 13:25:31;;;;;;;;;;;18.80;99.90;;;;;;5017418;28;1899;-55
2022/02/02 13:27:59;;;;;;;;;;;18.80;99.90;;;;;;5000203;28;840;-54
2022/02/02 13:30:54;;;;;;;;;;;18.80;99.90;;;;;;5010977;28;1021;-55
2022/02/02 13:33:30;;;;;;;;;;;18.80;99.90;;;;;;5015422;28;1617;-55
2022/02/02 13:36:17;;;;;;;;;;;18.80;99.90;;;;;;5012035;28;1146;-55
2022/02/02 13:47:45;;;;;;;;;;;18.80;99.90;;;;;;4918384;29;790;-54
2022/02/02 13:54:17;;;;;;;;;;;18.70;99.90;;;;;;4944226;29;1422;-54
2022/02/02 14:09:14;;;;;;;;;;;18.70;99.90;;;;;;4936069;29;1396;-54
2022/02/02 14:33:31;;;;;;;;;;;18.60;99.90;;;;;;5033027;28;1375;-56
2022/02/02 14:36:00;;;;;;;;;;;18.60;99.90;;;;;;5032263;28;1152;-56
2022/02/02 14:38:33;;;;;;;;;;;18.60;99.90;;;;;;5012279;28;1262;-56
2022/02/02 14:41:09;;;;;;;;;;;18.70;99.90;;;;;;5028060;28;1258;-57
2022/02/02 14:43:50;;;;;;;;;;;18.70;99.90;;;;;;5009973;28;1370;-57
2022/02/02 14:46:20;;;;;;;;;;;18.70;99.90;;;;;;5027536;28;1946;-55
2022/02/02 14:48:56;;;;;;;;;;;18.70;99.90;;;;;;5027905;28;1184;-55
2022/02/02 15:16:49;;;;;;;;;;;18.70;99.90;;;;;;4972544;28;1380;-47
2022/02/02 15:24:18;;;;;;;;;;;18.70;99.90;;;;;;4975119;28;810;-55
2022/02/02 15:32:08;;;;;;;;;;;18.70;99.90;;;;;;4975159;28;788;-56
2022/02/02 15:34:44;;;;;;;;;;;18.70;99.90;;;;;;4969600;28;1300;-56
2022/02/02 15:37:34;;;;;;;;;;;18.70;99.90;;;;;;4967579;28;1296;-55
2022/02/02 15:40:10;;;;;;;;;;;18.70;99.90;;;;;;4944670;28;1427;-57
2022/02/02 15:57:20;;;;;;;;;;;18.60;99.90;;;;;;5053500;28;776;-56
2022/02/02 15:59:26;;;;;;;;;;;18.60;99.90;;;;;;5056763;28;1554;-55
2022/02/02 16:04:34;;;;;;;;;;;18.60;99.90;;;;;;5054933;28;1977;-55
2022/02/02 16:07:05;;;;;;;;;;;18.60;99.90;;;;;;5058474;28;1008;-55
2022/02/02 16:09:45;;;;;;;;;;;18.60;99.90;;;;;;5039326;28;2027;-56
2022/02/02 16:12:20;;;;;;;;;;;18.50;99.90;;;;;;5058223;28;1019;-55
2022/02/02 16:15:30;;;;;;;;;;;18.50;99.90;;;;;;5057676;28;1100;-54
2022/02/02 16:36:35;;;;;;;;;;;18.50;99.90;;;;;;5058833;28;793;-54
2022/02/02 16:39:10;;;;;;;;;;;18.40;99.90;;;;;;5023238;28;916;-54
2022/02/02 16:44:21;;;;;;;;;;;18.40;99.90;;;;;;5057160;28;829;-55
2022/02/02 16:46:47;;;;;;;;;;;18.40;99.90;;;;;;5040533;28;1910;-55
2022/02/02 16:49:15;;;;;;;;;;;18.40;99.90;;;;;;5039684;28;1262;-55
2022/02/02 16:51:42;;;;;;;;;;;18.40;99.90;;;;;;5051823;28;1223;-55
2022/02/02 16:54:16;;;;;;;;;;;18.40;99.90;;;;;;5051892;28;1230;-56
2022/02/02 16:57:00;;;;;;;;;;;18.30;99.90;;;;;;5056302;28;1037;-54
2022/02/02 17:32:19;;;;;;;;;;;18.30;99.90;;;;;;5057799;28;754;-56
2022/02/02 17:40:16;;;;;;;;;;;18.20;99.90;;;;;;5056588;28;1393;-56
2022/02/02 18:20:50;;;;;;;;;;;18.20;99.90;;;;;;4975313;28;840;-55
2022/02/02 18:29:06;;;;;;;;;;;18.20;99.90;;;;;;4974650;28;1137;-55
2022/02/02 18:33:52;;;;;;;;;;;18.20;99.90;;;;;;4976006;28;821;-55
2022/02/02 18:47:40;;;;;;;;;;;18.20;99.90;;;;;;4955943;28;1331;-56
2022/02/02 18:50:34;;;;;;;;;;;18.20;99.90;;;;;;4992595;28;980;-55
2022/02/02 18:58:40;;;;;;;;;;;18.20;99.90;;;;;;4994009;28;1052;-57
2022/02/02 19:01:20;;;;;;;;;;;18.20;99.90;;;;;;4995057;28;1449;-55
2022/02/02 19:30:57;;;;;;;;;;;18.20;99.90;;;;;;5053705;28;1333;-56
2022/02/02 19:37:18;;;;;;;;;;;18.20;99.90;;;;;;5039312;28;1240;-47
2022/02/02 19:37:56;;;;;;;;;;;18.10;99.90;;;;;;5054600;28;1291;-47
2022/02/02 19:40:31;;;;;;;;;;;18.10;99.90;;;;;;5060844;28;1174;-46
2022/02/02 20:10:25;;;;;;;;;;;16.90;99.90;;;;;;4980984;28;1501;-47
2022/02/02 20:13:10;;;;;;;;;;;16.90;99.90;;;;;;5015559;28;1400;-47
2022/02/02 20:15:39;;;;;;;;;;;17.00;99.90;;;;;;5016342;28;1428;-47
2022/02/02 20:18:08;;;;;;;;;;;17.00;99.90;;;;;;5001984;28;1069;-47
2022/02/02 20:20:41;;;;;;;;;;;17.10;99.90;;;;;;5016716;28;1144;-47
2022/02/02 20:23:08;;;;;;;;;;;17.10;99.90;;;;;;5017535;28;1139;-47
2022/02/02 20:25:36;;;;;;;;;;;17.20;99.90;;;;;;5017378;28;1918;-54
2022/02/02 20:28:07;;;;;;;;;;;17.20;99.90;;;;;;5000047;28;1184;-55
2022/02/02 20:30:39;;;;;;;;;;;17.20;99.90;;;;;;4986102;28;945;-55
2022/02/02 20:33:08;;;;;;;;;;;17.20;99.90;;;;;;5016624;28;984;-55
2022/02/02 20:35:40;;;;;;;;;;;17.20;99.90;;;;;;5036005;28;948;-56
2022/02/02 20:38:11;;;;;;;;;;;17.20;99.90;;;;;;5035601;28;1277;-54
2022/02/02 20:40:38;;;;;;;;;;;17.10;99.90;;;;;;5036110;28;971;-56
2022/02/02 20:43:15;;;;;;;;;;;17.10;99.90;;;;;;5001614;28;905;-55
2022/02/02 21:04:53;;;;;;;;;;;16.90;99.90;;;;;;5038763;28;1038;-54
2022/02/02 21:10:07;;;;;;;;;;;16.90;99.90;;;;;;5042436;28;822;-47
2022/02/02 21:15:26;;;;;;;;;;;16.80;99.90;;;;;;5057114;28;804;-54
2022/02/02 21:17:57;;;;;;;;;;;16.80;99.90;;;;;;5036958;28;1117;-54
2022/02/02 21:20:31;;;;;;;;;;;16.70;99.90;;;;;;5038737;28;771;-54
2022/02/02 21:23:10;;;;;;;;;;;16.70;99.90;;;;;;5020330;28;1017;-55
2022/02/02 21:26:10;;;;;;;;;;;16.70;99.90;;;;;;5005232;28;1902;-54
2022/02/02 21:28:35;;;;;;;;;;;16.60;99.90;;;;;;5037916;28;1173;-54
2022/02/02 21:31:02;;;;;;;;;;;16.60;99.90;;;;;;5037928;28;1067;-54
2022/02/02 21:33:33;;;;;;;;;;;16.60;99.90;;;;;;5038149;28;1614;-54
2022/02/02 21:36:00;;;;;;;;;;;16.50;99.90;;;;;;5004698;28;1027;-54
2022/02/02 21:40:55;;;;;;;;;;;16.50;99.90;;;;;;5038004;28;804;-54
2022/02/02 21:43:23;;;;;;;;;;;16.50;99.90;;;;;;5038309;28;793;-54
2022/02/02 21:45:49;;;;;;;;;;;16.40;99.90;;;;;;5037963;28;1894;-55
2022/02/02 21:48:16;;;;;;;;;;;16.40;99.90;;;;;;5037310;28;1337;-54
2022/02/02 21:53:13;;;;;;;;;;;16.40;99.90;;;;;;5038017;28;793;-54
2022/02/02 21:55:39;;;;;;;;;;;16.30;99.90;;;;;;5036866;28;941;-54
2022/02/02 21:58:07;;;;;;;;;;;16.30;99.90;;;;;;5038128;28;869;-54
2022/02/02 22:00:34;;;;;;;;;;;16.30;99.90;;;;;;5019031;28;926;-54
2022/02/02 22:03:01;;;;;;;;;;;16.20;99.90;;;;;;5037111;28;872;-54
2022/02/02 22:05:27;;;;;;;;;;;16.20;99.90;;;;;;5037760;28;1959;-54
2022/02/02 22:07:53;;;;;;;;;;;16.20;99.90;;;;;;5037090;28;909;-54
2022/02/02 22:10:21;;;;;;;;;;;16.20;99.90;;;;;;5037720;28;991;-54
2022/02/02 22:12:48;;;;;;;;;;;16.10;99.90;;;;;;5037290;28;878;-54
2022/02/02 22:15:26;;;;;;;;;;;16.10;99.90;;;;;;5037127;28;846;-54
2022/02/02 22:17:55;;;;;;;;;;;16.10;99.90;;;;;;5046867;28;1135;-54
2022/02/02 22:20:21;;;;;;;;;;;16.10;99.90;;;;;;5039911;28;830;-54
2022/02/02 22:22:47;;;;;;;;;;;16.00;99.90;;;;;;5055743;28;868;-54
2022/02/02 22:25:35;;;;;;;;;;;16.00;99.90;;;;;;5029090;28;1909;-54
2022/02/02 22:28:03;;;;;;;;;;;16.00;99.90;;;;;;5057415;28;876;-54
2022/02/02 22:30:30;;;;;;;;;;;16.00;99.90;;;;;;5055224;28;941;-54
2022/02/02 22:32:57;;;;;;;;;;;15.90;99.90;;;;;;5053642;28;883;-54
2022/02/02 22:35:26;;;;;;;;;;;15.90;99.90;;;;;;5057180;28;779;-54
2022/02/02 22:37:53;;;;;;;;;;;15.90;99.90;;;;;;5075528;28;782;-54
2022/02/02 22:40:24;;;;;;;;;;;15.80;99.90;;;;;;5075256;28;864;-54
2022/02/02 22:42:50;;;;;;;;;;;15.80;99.90;;;;;;5040494;28;936;-54
2022/02/02 22:45:17;;;;;;;;;;;15.80;99.90;;;;;;5075323;28;893;-54
2022/02/02 22:47:45;;;;;;;;;;;15.80;99.90;;;;;;5033890;28;1902;-54
2022/02/02 22:50:12;;;;;;;;;;;15.80;99.90;;;;;;5038383;28;1558;-54
2022/02/02 22:52:41;;;;;;;;;;;15.80;99.90;;;;;;5056797;28;1050;-54
2022/02/02 22:55:11;;;;;;;;;;;15.70;99.90;;;;;;5056739;28;790;-54
2022/02/02 22:57:38;;;;;;;;;;;15.70;99.90;;;;;;5039942;28;960;-54
2022/02/02 23:00:09;;;;;;;;;;;15.70;99.90;;;;;;5056775;28;1012;-54
2022/02/02 23:05:05;;;;;;;;;;;15.60;99.90;;;;;;5074992;28;796;-47
2022/02/02 23:07:33;;;;;;;;;;;15.60;99.90;;;;;;5054077;28;1902;-47
2022/02/02 23:10:00;;;;;;;;;;;15.60;99.90;;;;;;5054053;28;903;-46
2022/02/02 23:12:29;;;;;;;;;;;15.60;99.90;;;;;;5053284;28;932;-46
2022/02/02 23:15:02;;;;;;;;;;;15.50;99.90;;;;;;5032438;28;1310;-47
2022/02/02 23:17:30;;;;;;;;;;;15.60;99.90;;;;;;5038589;28;1084;-47
2022/02/02 23:19:58;;;;;;;;;;;15.50;99.90;;;;;;5056046;28;942;-46
2022/02/02 23:22:29;;;;;;;;;;;15.50;99.90;;;;;;5055845;28;948;-46
2022/02/02 23:24:59;;;;;;;;;;;15.50;99.90;;;;;;5021505;28;1174;-46
2022/02/02 23:27:26;;;;;;;;;;;15.40;99.90;;;;;;5055551;28;1906;-46
2022/02/02 23:29:55;;;;;;;;;;;15.40;99.90;;;;;;5056424;28;901;-54
2022/02/02 23:32:23;;;;;;;;;;;15.40;99.90;;;;;;5005687;28;1002;-46
2022/02/02 23:35:09;;;;;;;;;;;15.40;99.90;;;;;;5056471;28;759;-46
2022/02/02 23:37:39;;;;;;;;;;;15.40;99.90;;;;;;5038703;28;854;-46
2022/02/02 23:40:08;;;;;;;;;;;15.40;99.90;;;;;;5055099;28;894;-46
2022/02/02 23:42:43;;;;;;;;;;;15.30;99.90;;;;;;5055172;28;844;-46
2022/02/02 23:45:11;;;;;;;;;;;15.30;99.90;;;;;;5056233;28;984;-54
2022/02/02 23:47:45;;;;;;;;;;;15.30;99.90;;;;;;5038154;28;1963;-54
2022/02/02 23:50:17;;;;;;;;;;;15.30;99.90;;;;;;5055520;28;866;-54
2022/02/02 23:52:52;;;;;;;;;;;15.30;99.90;;;;;;5056122;28;789;-54
2022/02/02 23:55:25;;;;;;;;;;;15.20;99.90;;;;;;5039681;28;809;-46
2022/02/02 23:58:06;;;;;;;;;;;15.20;99.90;;;;;;5056285;28;805;-46
